Zellwood, Florida
Current Conditions -  °F | °C
As of 4:53 AM on Saturday 25 Oct 2014 (Local Time) from KLEE Reporting Station
Scattered Clouds Scattered Clouds  
Wind Chill: 61°   Ceiling: Unl
Heat Index: 61°   Visibility: 10mi
Dew Point: 52°   Wind: 7mph
Humidity: 72%   Direction: 360°N
Pressure: 29.98"   Gusts: NA
Location:  28.73°N, 81.6°W
Report Text: KLEE 250853Z AUTO 36006KT 10SM FEW037 SCT045 16/11 A2998 RMK AO2 SLP149 T01610111 56006
Loading
Personal Weather Stations






























Interactive Weather Map New forecast layout! Learn more

10-Day Weather Forecast

Advertisements
Track Severe Weather on mobile